Aérodrome :
LOGIN :

S'inscrire | Disclaimer

   EN    FR    IT 

 










Légende :    VFR   VFR Marginal   IFR   IFR Intensif   IFR Très Intensif
Visi : 
Plafond : 
>= 8 km
>= 3000ft
5 à 8 km
1000 à 3000 ft
1500m à 5 km
500 à 1000 ft
800 à 1500m
200 à 500 ft
< 800m
< 200 ft
Symboles :   Orages  Brouillard  Fortes neiges  Fortes précipitations  Vent > 20 kt
SIGMETs :   Divers  Orages  Givrage  Turbulence  Onde Orograph.  Cendres Volcan.






- Altitude de l'aérodrome : 784 ft
- Code IATA : TZL


LQTZ - Tuzla

DERNIER METAR :
  • 171130Z 08003KT 050V160 CAVOK 15/02 Q1022

METARs EXPIRÉS :
  • 171100Z 08003KT 030V160 CAVOK 14/02 Q1022
  • 171030Z VRB02KT CAVOK 12/03 Q1023
  • 171000Z VRB01KT CAVOK 10/03 Q1023
  • 170930Z VRB01KT CAVOK 07/05 Q1024
  • 170900Z VRB01KT CAVOK 04/03 Q1024

TAF TAF LQTZ
Valide du 17 à 12h jusqu'au 18 à 12h UTC


171100Z 1712/1812 VRB02KT CAVOK TX18/1713Z TN02/1806Z
TEMPO 1804/1808 3000 BR
TEMPO 1809/1812 33010KT -RA



MET'MAP, la Météo Aéronautique d'un coup d'oeil ! - Copyright ORBIFLY Décembre 2007 - Disclaimer

ORBIFLY MET'MAP TEAM :

Programmation & Développement : Alexandra Zaïnal
Sur une idée originale de : Baudouin d'Aumeries
Assistance à la programmation : Marc-Olivier Méhu
Soutien technique & logistique : Manuel Goepfert

Contact : metmap@orbifly.com




SOURCES & CREDITS :

   NOAA